Terminal Aerodrome Forecast
Issued by NWS Sterling, VA

Current Version | Previous Version | Graphics & Text | Print | Product List | Glossary On
Versions: 1 2 3 4 5 6 7 8 9 10 11 12 13 14
000
FTUS41 KLWX 212322
TAFMRB
TAF
KMRB 212322Z 2200/2224 00000KT P6SM OVC015
     FM220300 30004KT P6SM BKN030
     FM220500 30006KT P6SM SCT050
     FM220700 30007KT P6SM SCT250
     FM221500 29011KT P6SM SCT250=

USA.gov is the U.S. government's official web portal to all federal, state and local government web resources and services.